createdAt,value
2023-04-25T00:01:11.362Z,111.90
2023-04-25T00:03:16.041Z,115.50
2023-04-25T00:05:25.195Z,110.17
2023-04-25T00:07:29.401Z,110.63
2023-04-25T00:09:35.985Z,105.97
2023-04-25T00:11:40.073Z,110.03
2023-04-25T00:13:48.431Z,112.90
2023-04-25T00:15:54.160Z,111.63
2023-04-25T00:17:55.709Z,107.20
2023-04-25T00:19:57.515Z,107.23
2023-04-25T00:22:01.875Z,112.70
2023-04-25T00:24:03.605Z,113.37
2023-04-25T00:26:05.232Z,111.97
2023-04-25T00:28:25.089Z,107.17
2023-04-25T00:30:44.909Z,104.03
2023-04-25T00:32:49.906Z,105.35
2023-04-25T00:35:10.673Z,110.87
2023-04-25T00:37:12.733Z,105.83
2023-04-25T00:39:14.192Z,104.50
2023-04-25T00:41:19.572Z,108.03
2023-04-25T00:43:24.806Z,105.63
2023-04-25T00:45:28.567Z,106.60
2023-04-25T00:47:33.710Z,107.83
2023-04-25T00:49:37.967Z,103.63
2023-04-25T00:51:42.406Z,100.10
2023-04-25T00:53:43.989Z,103.37
2023-04-25T00:55:45.689Z,102.13
2023-04-25T00:57:47.892Z,104.23
2023-04-25T00:59:51.841Z,100.10
2023-04-25T01:01:53.372Z,101.15
2023-04-25T01:06:02.671Z,98.63
2023-04-25T01:08:06.819Z,98.40
2023-04-25T01:10:11.300Z,99.43
2023-04-25T01:12:13.436Z,99.60
2023-04-25T01:14:15.048Z,102.90
2023-04-25T01:18:21.526Z,96.87
2023-04-25T01:20:25.981Z,100.97
2023-04-25T01:22:27.591Z,99.73
2023-04-25T01:24:29.048Z,99.90
2023-04-25T01:28:38.219Z,101.22
2023-04-25T01:30:42.525Z,101.57
2023-04-25T01:33:03.717Z,98.87
2023-04-25T01:35:10.385Z,105.57
2023-04-25T01:37:12.024Z,105.07
2023-04-25T01:39:16.657Z,106.90
2023-04-25T01:41:18.918Z,111.10
2023-04-25T01:43:23.034Z,108.03
2023-04-25T01:47:33.011Z,102.78
2023-04-25T01:49:34.690Z,102.10
2023-04-25T01:51:55.040Z,103.57
2023-04-25T01:53:58.010Z,101.93
2023-04-25T01:56:19.539Z,106.10
2023-04-25T01:58:21.256Z,109.80
2023-04-25T02:00:22.788Z,111.07
2023-04-25T02:02:27.342Z,116.27
2023-04-25T02:04:32.051Z,113.07
2023-04-25T02:06:36.596Z,109.00
2023-04-25T02:08:38.558Z,103.47
2023-04-25T02:10:40.203Z,104.13
2023-04-25T02:12:41.864Z,101.40
2023-04-25T02:14:46.268Z,99.40
2023-04-25T02:16:47.977Z,98.53
2023-04-25T02:18:53.794Z,96.77
2023-04-25T02:20:59.495Z,96.20
2023-04-25T02:23:03.890Z,95.00
2023-04-25T02:25:08.224Z,94.03
2023-04-25T02:27:28.116Z,94.53
2023-04-25T02:31:33.757Z,92.07
2023-04-25T02:35:41.961Z,90.15
2023-04-25T02:37:43.649Z,97.33
2023-04-25T02:40:06.460Z,96.37
2023-04-25T02:42:13.684Z,93.30
2023-04-25T02:44:21.182Z,93.67
2023-04-25T02:46:39.431Z,95.30
2023-04-25T02:48:57.268Z,92.63
2023-04-25T02:51:13.770Z,92.80
2023-04-25T02:53:31.888Z,93.83
2023-04-25T02:55:44.151Z,92.47
2023-04-25T02:57:57.666Z,94.13
2023-04-25T03:00:27.323Z,92.83
2023-04-25T03:02:42.966Z,94.57
2023-04-25T03:04:57.994Z,91.35
2023-04-25T03:07:13.894Z,91.53
2023-04-25T03:09:29.430Z,90.07
2023-04-25T03:11:40.490Z,88.40
2023-04-25T03:13:52.464Z,87.07
2023-04-25T03:16:04.356Z,86.57
2023-04-25T03:18:17.025Z,84.47
2023-04-25T03:20:21.318Z,84.50
2023-04-25T03:22:25.611Z,85.57
2023-04-25T03:24:29.658Z,85.63
2023-04-25T03:26:34.411Z,86.80
2023-04-25T03:28:38.835Z,84.50
2023-04-25T03:30:40.616Z,84.80
2023-04-25T03:32:44.709Z,85.40
2023-04-25T03:34:48.950Z,84.57
2023-04-25T03:36:50.556Z,84.53
2023-04-25T03:38:52.112Z,86.47
2023-04-25T03:40:54.097Z,85.90
2023-04-25T03:42:58.365Z,87.63
2023-04-25T03:45:02.871Z,83.70
2023-04-25T03:47:07.213Z,27.75
2023-04-25T03:51:12.661Z,7.13
2023-04-25T03:53:16.949Z,8.52
2023-04-25T03:55:18.602Z,7.97
2023-04-25T03:57:20.110Z,8.13
2023-04-25T03:59:21.623Z,7.55
2023-04-25T04:01:23.142Z,7.07
2023-04-25T04:03:27.613Z,7.15
2023-04-25T04:07:34.372Z,7.10
2023-04-25T04:09:36.030Z,6.43
2023-04-25T04:11:39.410Z,7.85
2023-04-25T04:13:40.910Z,7.78
2023-04-25T04:15:45.472Z,7.97
2023-04-25T04:17:48.041Z,6.55
2023-04-25T04:19:52.574Z,6.57
2023-04-25T04:21:54.230Z,6.70
2023-04-25T04:23:55.640Z,5.80
2023-04-25T04:25:57.323Z,5.97
2023-04-25T04:27:59.947Z,6.35
2023-04-25T04:30:04.475Z,5.95
2023-04-25T04:34:13.982Z,6.40
2023-04-25T04:36:16.834Z,6.05
2023-04-25T04:38:38.354Z,5.45
2023-04-25T04:40:47.206Z,5.55
2023-04-25T04:42:51.391Z,6.05
2023-04-25T04:44:53.226Z,5.80
2023-04-25T04:46:57.657Z,5.97
2023-04-25T04:49:18.503Z,5.85
2023-04-25T04:51:20.240Z,7.05
2023-04-25T04:53:24.521Z,5.70
2023-04-25T04:55:26.025Z,5.90
2023-04-25T04:57:28.761Z,5.93
2023-04-25T04:59:30.193Z,5.95
2023-04-25T05:01:36.947Z,5.72
2023-04-25T05:03:41.475Z,6.20
2023-04-25T05:05:46.872Z,6.68
2023-04-25T05:07:51.566Z,7.35
2023-04-25T05:09:55.920Z,8.65
2023-04-25T05:12:00.190Z,10.50
2023-04-25T05:14:04.544Z,10.63
2023-04-25T05:16:06.232Z,16.13
2023-04-25T05:18:10.973Z,14.85
2023-04-25T05:20:12.809Z,13.18
2023-04-25T05:22:14.372Z,13.63
2023-04-25T05:26:22.959Z,13.35
2023-04-25T05:28:43.188Z,16.63
2023-04-25T05:30:47.723Z,22.73
2023-04-25T05:32:51.848Z,29.52
2023-04-25T05:34:53.561Z,27.42
2023-04-25T05:36:55.108Z,23.13
2023-04-25T05:38:56.545Z,19.77
2023-04-25T05:41:16.574Z,18.98
2023-04-25T05:43:20.919Z,15.68
2023-04-25T05:45:25.233Z,19.63
2023-04-25T05:47:35.819Z,17.35
2023-04-25T05:49:47.719Z,19.10
2023-04-25T05:52:03.289Z,18.05
2023-04-25T05:54:12.442Z,17.65
2023-04-25T05:56:31.564Z,14.05
2023-04-25T05:58:47.580Z,12.98
2023-04-25T06:01:02.959Z,10.77
2023-04-25T06:03:15.892Z,8.18
2023-04-25T06:05:32.733Z,8.52
2023-04-25T06:07:44.654Z,6.63
2023-04-25T06:10:14.969Z,5.85
2023-04-25T06:12:29.068Z,7.20
2023-04-25T06:16:56.829Z,6.70
2023-04-25T06:19:08.687Z,5.57
2023-04-25T06:21:38.059Z,5.32
2023-04-25T06:23:52.424Z,4.97
2023-04-25T06:25:56.386Z,4.80
2023-04-25T06:28:00.777Z,3.67
2023-04-25T06:30:08.585Z,3.58
2023-04-25T06:32:10.062Z,3.50
2023-04-25T06:34:11.645Z,2.80
2023-04-25T06:36:13.214Z,2.78
2023-04-25T06:38:17.523Z,2.55
2023-04-25T06:40:18.998Z,2.00
2023-04-25T06:42:23.376Z,2.40
2023-04-25T06:44:30.658Z,1.95
2023-04-25T06:46:35.177Z,2.40
2023-04-25T06:48:36.650Z,2.75
2023-04-25T06:50:40.674Z,2.40
2023-04-25T06:52:45.018Z,2.35
2023-04-25T06:54:49.236Z,2.25
2023-04-25T06:56:50.828Z,2.05
2023-04-25T06:58:54.898Z,2.40
2023-04-25T07:00:59.180Z,2.50
2023-04-25T07:03:19.632Z,3.08
2023-04-25T07:05:21.866Z,2.83
2023-04-25T07:07:23.609Z,2.60
2023-04-25T07:09:25.177Z,2.25
2023-04-25T07:11:29.636Z,3.28
2023-04-25T07:13:34.290Z,2.60
2023-04-25T07:15:56.726Z,2.25
2023-04-25T07:17:58.777Z,2.45
2023-04-25T07:20:04.535Z,2.20
2023-04-25T07:22:08.762Z,2.70
2023-04-25T07:24:12.918Z,2.25
2023-04-25T07:26:14.357Z,2.28
2023-04-25T07:28:19.677Z,2.17
2023-04-25T07:30:24.058Z,2.28
2023-04-25T07:32:26.177Z,2.33
2023-04-25T07:34:27.785Z,2.63
2023-04-25T07:36:32.366Z,1.63
2023-04-25T07:38:34.016Z,2.28
2023-04-25T07:40:38.244Z,1.80
2023-04-25T07:42:42.812Z,2.15
2023-04-25T07:44:44.565Z,2.35
2023-04-25T07:46:48.636Z,1.83
2023-04-25T07:48:53.195Z,2.15
2023-04-25T07:50:57.764Z,2.38
2023-04-25T07:53:01.960Z,1.83
2023-04-25T07:55:06.446Z,2.13
2023-04-25T07:57:07.884Z,1.75
2023-04-25T07:59:09.317Z,1.83
2023-04-25T08:01:13.638Z,1.77
2023-04-25T08:03:18.130Z,1.55
2023-04-25T08:05:22.435Z,1.10
2023-04-25T08:07:27.640Z,1.73
2023-04-25T08:09:47.932Z,1.58
2023-04-25T08:11:52.379Z,1.58
2023-04-25T08:13:56.671Z,1.65
2023-04-25T08:15:58.258Z,1.42
2023-04-25T08:18:00.600Z,1.42
2023-04-25T08:20:02.240Z,2.30
2023-04-25T08:22:07.105Z,1.35
2023-04-25T08:24:08.597Z,1.13
2023-04-25T08:26:10.049Z,0.80
2023-04-25T08:28:14.961Z,1.40
2023-04-25T08:30:19.497Z,1.08
2023-04-25T08:32:22.250Z,1.30
2023-04-25T08:34:23.684Z,1.90
2023-04-25T08:36:38.577Z,1.38
2023-04-25T08:38:44.246Z,2.03
2023-04-25T08:41:04.092Z,1.20
2023-04-25T08:43:12.752Z,1.70
2023-04-25T08:45:17.340Z,0.93
2023-04-25T08:47:22.708Z,1.60
2023-04-25T08:49:27.414Z,1.75
2023-04-25T08:51:32.877Z,1.83
2023-04-25T08:53:36.356Z,1.00
2023-04-25T08:55:40.597Z,1.60
2023-04-25T08:57:47.170Z,0.98
2023-04-25T08:59:54.539Z,1.45
2023-04-25T09:02:00.722Z,1.45
2023-04-25T09:04:04.082Z,0.98
2023-04-25T09:06:07.153Z,1.05
2023-04-25T09:08:11.382Z,1.38
2023-04-25T09:10:17.483Z,1.02
2023-04-25T09:12:26.297Z,1.17
2023-04-25T09:14:32.042Z,1.00
2023-04-25T09:16:38.294Z,1.27
2023-04-25T09:18:48.627Z,1.10
2023-04-25T09:23:05.229Z,1.50
2023-04-25T09:25:16.388Z,1.27
2023-04-25T09:27:26.562Z,1.42
2023-04-25T09:29:35.901Z,1.15
2023-04-25T09:31:40.678Z,1.27
2023-04-25T09:33:42.143Z,1.15
2023-04-25T09:35:44.485Z,1.20
2023-04-25T09:37:51.834Z,1.20
2023-04-25T09:40:13.524Z,1.00
2023-04-25T09:42:16.696Z,1.67
2023-04-25T09:46:22.186Z,1.35
2023-04-25T09:48:27.501Z,0.70
2023-04-25T09:51:14.789Z,0.80
2023-04-25T09:53:18.981Z,0.60
2023-04-25T09:55:23.347Z,0.65
2023-04-25T09:57:25.545Z,1.17
2023-04-25T09:59:30.994Z,0.88
2023-04-25T10:01:32.863Z,1.30
2023-04-25T10:03:36.054Z,0.93
2023-04-25T10:05:38.737Z,1.27
2023-04-25T10:07:43.328Z,1.00
2023-04-25T10:09:46.760Z,1.65
2023-04-25T10:11:51.487Z,0.70
2023-04-25T10:13:57.035Z,1.10
2023-04-25T10:16:02.390Z,1.10
2023-04-25T10:18:07.428Z,1.42
2023-04-25T10:20:12.450Z,0.77
2023-04-25T10:22:24.398Z,0.73
2023-04-25T10:24:29.121Z,0.80
2023-04-25T10:26:33.633Z,0.88
2023-04-25T10:29:03.817Z,0.60
2023-04-25T10:31:10.817Z,1.30
2023-04-25T10:33:19.796Z,0.93
2023-04-25T10:35:40.159Z,1.05
2023-04-25T10:38:03.594Z,0.75
2023-04-25T10:40:11.332Z,1.00
2023-04-25T10:42:15.454Z,0.70
2023-04-25T10:44:37.754Z,1.45
2023-04-25T10:46:39.325Z,0.80
2023-04-25T10:48:53.443Z,1.05
2023-04-25T10:51:10.381Z,0.73
2023-04-25T10:53:15.469Z,0.98
2023-04-25T10:55:16.942Z,1.23
2023-04-25T10:57:36.860Z,0.70
2023-04-25T10:59:41.357Z,0.95
2023-04-25T11:01:47.031Z,1.00
2023-04-25T11:03:58.346Z,1.30
2023-04-25T11:06:03.468Z,1.50
2023-04-25T11:08:15.117Z,1.30
2023-04-25T11:10:16.786Z,1.30
2023-04-25T11:12:18.706Z,0.98
2023-04-25T11:16:46.059Z,1.00
2023-04-25T11:18:47.592Z,1.45
2023-04-25T11:20:49.464Z,1.17
2023-04-25T11:22:52.770Z,1.30
2023-04-25T11:27:03.310Z,1.58
2023-04-25T11:29:07.955Z,1.08
2023-04-25T11:31:10.785Z,1.15
2023-04-25T11:33:15.277Z,1.30
2023-04-25T11:35:17.402Z,1.60
2023-04-25T11:37:19.028Z,0.98
2023-04-25T11:39:21.039Z,1.10
2023-04-25T11:41:23.253Z,1.30
2023-04-25T11:43:27.478Z,1.00
2023-04-25T11:45:29.742Z,1.40
2023-04-25T11:47:31.561Z,1.00
2023-04-25T11:49:36.712Z,1.17
2023-04-25T11:51:44.335Z,1.08
2023-04-25T11:53:45.998Z,1.50
2023-04-25T11:55:47.736Z,1.13
2023-04-25T11:57:50.415Z,1.15
2023-04-25T11:59:55.807Z,1.40
2023-04-25T12:01:59.526Z,1.05
2023-04-25T12:04:38.901Z,1.40
2023-04-25T12:06:55.711Z,0.82
2023-04-25T12:09:05.499Z,1.30
2023-04-25T12:11:22.185Z,1.63
2023-04-25T12:13:27.581Z,1.23
2023-04-25T12:15:31.136Z,1.70
2023-04-25T12:17:37.327Z,1.70
2023-04-25T12:19:42.540Z,2.20
2023-04-25T12:21:57.322Z,1.45
2023-04-25T12:24:28.616Z,1.83
2023-04-25T12:26:48.103Z,2.25
2023-04-25T12:28:52.298Z,1.67
2023-04-25T12:31:06.917Z,1.95
2023-04-25T12:33:13.303Z,1.45
2023-04-25T12:35:20.277Z,2.03
2023-04-25T12:37:24.117Z,1.55
2023-04-25T12:39:27.886Z,1.65
2023-04-25T12:41:29.888Z,1.75
2023-04-25T12:43:31.439Z,1.95
2023-04-25T12:45:36.220Z,1.58
2023-04-25T12:47:37.897Z,1.42
2023-04-25T12:49:42.263Z,1.50
2023-04-25T12:51:44.025Z,1.55
2023-04-25T12:53:45.516Z,1.65
2023-04-25T12:55:49.675Z,2.20
2023-04-25T12:57:51.058Z,1.75
2023-04-25T12:59:52.607Z,1.38
2023-04-25T13:01:56.695Z,1.10
2023-04-25T13:03:58.391Z,1.10
2023-04-25T13:06:03.021Z,2.15
2023-04-25T13:08:23.303Z,1.48
2023-04-25T13:10:24.791Z,1.70
2023-04-25T13:12:44.884Z,1.20
2023-04-25T13:14:49.300Z,2.15
2023-04-25T13:16:54.139Z,1.38
2023-04-25T13:18:58.895Z,2.00
2023-04-25T13:21:04.213Z,1.40
2023-04-25T13:23:08.526Z,1.88
2023-04-25T13:25:10.153Z,2.10
2023-04-25T13:27:11.588Z,1.25
2023-04-25T13:29:15.897Z,1.48
2023-04-25T13:31:17.372Z,1.30
2023-04-25T13:33:21.644Z,1.55
2023-04-25T13:35:25.796Z,1.05
2023-04-25T13:37:27.325Z,1.20
2023-04-25T13:39:31.578Z,1.40
2023-04-25T13:41:35.976Z,1.58
2023-04-25T13:43:37.465Z,1.50
2023-04-25T13:45:42.472Z,1.35
2023-04-25T13:47:43.993Z,1.58
2023-04-25T13:49:49.035Z,1.27
2023-04-25T13:51:50.550Z,1.70
2023-04-25T13:53:54.816Z,1.85
2023-04-25T13:55:56.272Z,2.05
2023-04-25T13:58:16.463Z,2.25
2023-04-25T14:00:21.303Z,1.40
2023-04-25T14:02:41.461Z,2.05
2023-04-25T14:04:46.064Z,1.92
2023-04-25T14:06:47.944Z,1.55
2023-04-25T14:08:51.971Z,1.52
2023-04-25T14:10:53.387Z,1.40
2023-04-25T14:12:54.836Z,1.50
2023-04-25T14:14:56.431Z,1.70
2023-04-25T14:16:58.337Z,1.85
2023-04-25T14:18:59.889Z,1.60
2023-04-25T14:21:01.321Z,1.80
2023-04-25T14:23:02.940Z,1.42
2023-04-25T14:25:07.415Z,1.50
2023-04-25T14:27:09.074Z,1.58
2023-04-25T14:29:12.781Z,1.75
2023-04-25T14:33:35.110Z,1.70
2023-04-25T14:35:36.697Z,1.35
2023-04-25T14:37:41.207Z,2.40
2023-04-25T14:39:46.477Z,1.45
2023-04-25T14:41:48.058Z,2.00
2023-04-25T14:43:52.543Z,1.52
2023-04-25T14:45:56.804Z,1.30
2023-04-25T14:48:02.942Z,1.48
2023-04-25T14:50:08.277Z,1.45
2023-04-25T14:52:09.745Z,1.77
2023-04-25T14:54:14.026Z,1.52
2023-04-25T14:56:15.859Z,1.42
2023-04-25T14:58:20.786Z,1.75
2023-04-25T15:00:23.025Z,1.75
2023-04-25T15:02:27.632Z,1.85
2023-04-25T15:04:29.245Z,1.60
2023-04-25T15:06:31.415Z,1.60
2023-04-25T15:08:33.748Z,1.58
2023-04-25T15:10:37.930Z,1.38
2023-04-25T15:12:42.185Z,1.80
2023-04-25T15:14:48.973Z,1.80
2023-04-25T15:16:54.681Z,1.58
2023-04-25T15:18:56.155Z,1.40
2023-04-25T15:21:00.544Z,2.60
2023-04-25T15:23:21.199Z,1.98
2023-04-25T15:25:27.217Z,1.25
2023-04-25T15:27:33.181Z,1.67
2023-04-25T15:29:37.623Z,2.80
2023-04-25T15:31:39.077Z,1.40
2023-04-25T15:35:44.381Z,1.30
2023-04-25T15:37:49.708Z,1.48
2023-04-25T15:40:10.795Z,1.15
2023-04-25T15:42:16.796Z,1.27
2023-04-25T15:44:21.000Z,1.20
2023-04-25T15:46:23.781Z,1.88
2023-04-25T15:48:28.346Z,1.33
2023-04-25T15:50:31.862Z,1.27
2023-04-25T15:52:34.041Z,1.63
2023-04-25T15:54:35.605Z,2.38
2023-04-25T15:56:38.786Z,1.10
2023-04-25T15:58:40.262Z,2.13
2023-04-25T16:00:46.230Z,1.08
2023-04-25T16:02:48.577Z,1.75
2023-04-25T16:04:53.313Z,1.70
2023-04-25T16:06:56.812Z,1.85
2023-04-25T16:09:01.948Z,1.35
2023-04-25T16:11:09.283Z,1.75
2023-04-25T16:13:14.066Z,1.67
2023-04-25T16:15:18.318Z,1.33
2023-04-25T16:17:19.977Z,1.40
2023-04-25T16:19:22.012Z,1.55
2023-04-25T16:21:25.600Z,1.73
2023-04-25T16:25:31.980Z,1.30
2023-04-25T16:27:37.947Z,2.90
2023-04-25T16:29:42.503Z,1.63
2023-04-25T16:31:44.565Z,1.48
2023-04-25T16:33:49.452Z,1.67
2023-04-25T16:35:52.554Z,1.38
2023-04-25T16:37:54.293Z,1.75
2023-04-25T16:39:55.836Z,1.42
2023-04-25T16:42:00.117Z,1.27
2023-04-25T16:44:01.598Z,1.50
2023-04-25T16:46:06.009Z,1.70
2023-04-25T16:48:08.420Z,1.33
2023-04-25T16:50:16.438Z,2.10
2023-04-25T16:52:23.606Z,1.35
2023-04-25T16:54:25.776Z,2.10
2023-04-25T16:56:30.113Z,1.77
2023-04-25T16:58:34.932Z,1.52
2023-04-25T17:00:56.674Z,1.30
2023-04-25T17:02:58.426Z,2.95
2023-04-25T17:05:03.590Z,1.38
2023-04-25T17:07:08.797Z,1.25
2023-04-25T17:09:13.532Z,1.05
2023-04-25T17:11:15.060Z,1.83
2023-04-25T17:13:16.722Z,1.75
2023-04-25T17:15:18.145Z,1.73
2023-04-25T17:17:21.380Z,1.67
2023-04-25T17:19:22.839Z,1.45
2023-04-25T17:21:24.267Z,2.05
2023-04-25T17:25:29.996Z,2.35
2023-04-25T17:27:34.817Z,1.20
2023-04-25T17:29:36.259Z,1.23
2023-04-25T17:31:57.126Z,1.20
2023-04-25T17:33:58.786Z,1.73
2023-04-25T17:36:19.027Z,1.80
2023-04-25T17:38:23.239Z,1.40
2023-04-25T17:40:26.104Z,1.80
2023-04-25T17:42:46.525Z,1.10
2023-04-25T17:44:50.860Z,1.30
2023-04-25T17:46:54.963Z,1.50
2023-04-25T17:49:15.090Z,1.38
2023-04-25T17:51:35.025Z,1.83
2023-04-25T17:53:36.651Z,0.80
2023-04-25T17:55:43.588Z,1.42
2023-04-25T17:57:47.832Z,1.58
2023-04-25T17:59:49.329Z,1.75
2023-04-25T18:02:10.846Z,3.05
2023-04-25T18:04:12.670Z,1.50
2023-04-25T18:06:14.062Z,1.73
2023-04-25T18:10:26.763Z,1.02
2023-04-25T18:12:42.198Z,1.00
2023-04-25T18:15:00.733Z,1.33
2023-04-25T18:17:13.061Z,1.00
2023-04-25T18:19:28.673Z,1.52
2023-04-25T18:21:40.809Z,1.38
2023-04-25T18:23:49.178Z,1.40
2023-04-25T18:26:02.231Z,1.25
2023-04-25T18:28:10.670Z,29.88
2023-04-25T18:30:18.719Z,1.25
2023-04-25T18:32:25.961Z,1.40
2023-04-25T18:34:33.868Z,1.75
2023-04-25T18:36:39.557Z,1.50
2023-04-25T18:38:44.036Z,1.40
2023-04-25T18:41:02.314Z,1.27
2023-04-25T18:43:21.472Z,1.45
2023-04-25T18:45:26.617Z,0.90
2023-04-25T18:47:50.785Z,1.15
2023-04-25T18:49:55.407Z,1.30
2023-04-25T18:51:57.739Z,1.65
2023-04-25T18:54:02.202Z,1.23
2023-04-25T18:56:03.785Z,1.55
2023-04-25T18:58:05.337Z,1.55
2023-04-25T19:02:11.562Z,1.55
2023-04-25T19:04:16.262Z,1.77
2023-04-25T19:06:17.818Z,1.08
2023-04-25T19:08:19.342Z,1.45
2023-04-25T19:10:23.897Z,1.90
2023-04-25T19:12:25.563Z,1.45
2023-04-25T19:14:31.947Z,1.35
2023-04-25T19:16:38.915Z,1.45
2023-04-25T19:18:43.957Z,1.25
2023-04-25T19:20:48.312Z,1.48
2023-04-25T19:25:09.109Z,1.95
2023-04-25T19:29:14.661Z,3.13
2023-04-25T19:31:19.939Z,2.70
2023-04-25T19:33:21.652Z,2.63
2023-04-25T19:35:30.696Z,1.58
2023-04-25T19:37:32.191Z,1.88
2023-04-25T19:39:33.625Z,2.05
2023-04-25T19:41:39.003Z,1.63
2023-04-25T19:43:43.440Z,1.30
2023-04-25T19:45:47.728Z,1.77
2023-04-25T19:47:53.034Z,1.50
2023-04-25T19:49:54.478Z,1.95
2023-04-25T19:51:58.537Z,1.20
2023-04-25T19:54:00.181Z,1.60
2023-04-25T19:56:04.909Z,2.03
2023-04-25T19:58:06.950Z,1.88
2023-04-25T20:00:12.866Z,1.73
2023-04-25T20:02:18.349Z,1.67
2023-04-25T20:04:19.827Z,1.58
2023-04-25T20:06:24.149Z,1.67
2023-04-25T20:08:26.138Z,1.30
2023-04-25T20:10:27.787Z,1.50
2023-04-25T20:14:36.608Z,1.52
2023-04-25T20:16:38.145Z,2.05
2023-04-25T20:18:43.131Z,1.88
2023-04-25T20:20:44.758Z,1.00
2023-04-25T20:22:50.890Z,1.50
2023-04-25T20:25:12.061Z,1.77
2023-04-25T20:27:13.663Z,2.13
2023-04-25T20:29:15.469Z,2.08
2023-04-25T20:31:20.163Z,1.55
2023-04-25T20:33:24.539Z,1.95
2023-04-25T20:35:28.898Z,1.80
2023-04-25T20:37:50.597Z,1.58
2023-04-25T20:39:54.944Z,1.40
2023-04-25T20:41:57.013Z,1.83
2023-04-25T20:44:02.884Z,2.15
2023-04-25T20:46:22.960Z,2.08
2023-04-25T20:48:27.363Z,1.42
2023-04-25T20:50:33.375Z,1.60
2023-04-25T20:52:35.376Z,1.98
2023-04-25T20:54:55.619Z,1.63
2023-04-25T20:59:04.649Z,1.17
2023-04-25T21:01:08.996Z,1.20
2023-04-25T21:03:12.015Z,1.52
2023-04-25T21:05:16.299Z,1.70
2023-04-25T21:07:20.624Z,1.77
2023-04-25T21:09:22.291Z,2.65
2023-04-25T21:11:23.865Z,2.67
2023-04-25T21:13:29.126Z,1.52
2023-04-25T21:15:33.669Z,1.27
2023-04-25T21:17:35.192Z,1.65
2023-04-25T21:19:44.386Z,2.35
2023-04-25T21:21:58.628Z,2.00
2023-04-25T21:24:09.793Z,2.95
2023-04-25T21:26:20.898Z,2.13
2023-04-25T21:28:37.703Z,2.53
2023-04-25T21:30:51.349Z,2.35
2023-04-25T21:33:03.158Z,1.80
2023-04-25T21:35:13.001Z,3.00
2023-04-25T21:37:25.307Z,2.45
2023-04-25T21:39:37.662Z,3.13
2023-04-25T21:41:52.554Z,2.78
2023-04-25T21:43:58.648Z,2.13
2023-04-25T21:48:25.442Z,2.35
2023-04-25T21:50:37.406Z,2.08
2023-04-25T21:52:40.396Z,2.08
2023-04-25T21:54:41.849Z,2.20
2023-04-25T21:57:01.806Z,2.30
2023-04-25T21:59:06.213Z,2.97
2023-04-25T22:01:07.735Z,3.63
2023-04-25T22:03:09.368Z,3.08
2023-04-25T22:05:13.772Z,3.22
2023-04-25T22:07:15.567Z,3.58
2023-04-25T22:09:16.994Z,4.85
2023-04-25T22:11:18.569Z,3.38
2023-04-25T22:13:23.038Z,2.65
2023-04-25T22:15:24.546Z,2.53
2023-04-25T22:17:27.745Z,3.67
2023-04-25T22:19:30.386Z,3.00
2023-04-25T22:21:31.877Z,3.53
2023-04-25T22:23:52.861Z,3.00
2023-04-25T22:25:57.312Z,3.33
2023-04-25T22:28:01.592Z,2.78
2023-04-25T22:30:03.602Z,3.50
2023-04-25T22:32:23.740Z,2.80
2023-04-25T22:34:25.220Z,3.05
2023-04-25T22:38:31.135Z,3.92
2023-04-25T22:40:32.771Z,2.55
2023-04-25T22:42:41.149Z,3.15
2023-04-25T22:44:46.200Z,2.75
2023-04-25T22:46:50.296Z,2.88
2023-04-25T22:49:10.298Z,3.38
2023-04-25T22:51:11.916Z,6.07
2023-04-25T22:53:13.513Z,2.70
2023-04-25T22:55:14.905Z,3.10
2023-04-25T22:57:21.355Z,2.50
2023-04-25T22:59:26.157Z,2.80
2023-04-25T23:01:46.668Z,3.08
2023-04-25T23:03:48.684Z,3.50
2023-04-25T23:05:53.200Z,3.75
2023-04-25T23:08:14.765Z,4.00
2023-04-25T23:10:16.355Z,4.28
2023-04-25T23:12:20.785Z,3.30
2023-04-25T23:14:22.302Z,4.15
2023-04-25T23:16:23.820Z,3.38
2023-04-25T23:18:43.908Z,3.50
2023-04-25T23:21:04.319Z,3.55
2023-04-25T23:23:06.089Z,3.97
2023-04-25T23:25:08.090Z,3.35
2023-04-25T23:27:09.730Z,3.33
2023-04-25T23:29:11.191Z,3.42
2023-04-25T23:31:12.933Z,3.60
2023-04-25T23:33:14.409Z,4.78
2023-04-25T23:35:15.916Z,4.72
2023-04-25T23:37:17.311Z,5.32
2023-04-25T23:39:19.752Z,4.75
2023-04-25T23:41:25.212Z,4.53
2023-04-25T23:43:29.956Z,4.60
2023-04-25T23:45:31.449Z,4.57
2023-04-25T23:47:36.077Z,3.92
2023-04-25T23:49:37.525Z,4.80
2023-04-25T23:51:38.950Z,4.75
2023-04-25T23:53:43.200Z,6.20
2023-04-25T23:55:44.689Z,5.10
2023-04-25T23:57:49.070Z,4.60
2023-04-25T23:59:50.834Z,4.28
